Terminal Aerodrome Forecast
Issued by NWS Milwaukee/Sullivan, WI

Home | Current Version | Previous Version | Text Only | Print | Product List | Glossary On
Versions: 1 2 3 4 5 6 7 8 9 10 11 12 13 14 15 16 17 18 19 20 21 22 23 24 25
000
FTUS43 KMKX 280710 AAB
TAFMSN
TAF AMD
KMSN 280710Z 2807/2906 17011KT P6SM VCSH BKN018 OVC045
      TEMPO 2807/2808 17017G25KT 5SM SHRA BR
     FM281000 17005KT 5SM BR OVC015
     FM281200 17007KT 5SM BR OVC008
     FM281500 19009KT P6SM OVC015
     FM281800 19013G20KT P6SM BKN035
     FM282300 18010G20KT P6SM SHRA VCTS BKN050CB
     FM290300 18008KT P6SM SHRA VCSH BKN090=

USA.gov is the U.S. government's official web portal to all federal, state and local government web resources and services.